Time;durP1;ratioP1;P1;durP2;ratioP2;P2;SDS_P1;SDS_P2;PMS_P1;PMS_P2;Temp;Humidity;BMP_temperature;BMP_pressure;BME280_temperature;BME280_humidity;BME280_pressure;Samples;Min_cycle;Max_cycle;Signal;HPM_P1;HPM_P2
2021/12/07 00:00:19;;;;;;;52.25;21.65;;;-0.70;99.90;;;;;;4949331;29;20043;-59
2021/12/07 00:02:46;;;;;;;55.03;21.00;;;-0.80;99.90;;;;;;4951287;29;20035;-59
2021/12/07 00:05:12;;;;;;;50.47;19.30;;;-0.90;99.90;;;;;;4950017;29;20102;-59
2021/12/07 00:07:39;;;;;;;33.90;13.10;;;-1.00;99.90;;;;;;4950054;29;20047;-59
2021/12/07 00:10:06;;;;;;;50.05;19.42;;;-1.00;99.90;;;;;;4950839;29;20063;-59
2021/12/07 00:12:36;;;;;;;61.40;22.88;;;-0.90;99.90;;;;;;4949637;29;20031;-59
2021/12/07 00:15:03;;;;;;;54.90;21.50;;;-1.00;99.90;;;;;;4950740;29;20038;-59
2021/12/07 00:17:30;;;;;;;51.25;20.25;;;-1.00;99.90;;;;;;4950385;29;20063;-59
2021/12/07 00:19:58;;;;;;;47.95;19.52;;;-1.00;99.90;;;;;;4948668;29;20389;-59
2021/12/07 00:22:24;;;;;;;49.75;19.48;;;-1.00;99.90;;;;;;4948742;29;20031;-59
2021/12/07 00:24:50;;;;;;;48.10;18.77;;;-1.00;99.90;;;;;;4950806;29;20495;-59
2021/12/07 00:27:15;;;;;;;32.50;13.20;;;-1.00;99.90;;;;;;4949761;29;20043;-59
2021/12/07 00:29:41;;;;;;;35.72;13.27;;;-0.80;99.90;;;;;;4950106;28;20029;-59
2021/12/07 00:35:01;;;;;;;28.42;11.18;;;-0.40;99.90;;;;;;4952425;29;20035;-59
2021/12/07 00:37:32;;;;;;;29.02;11.25;;;-0.20;99.90;;;;;;4951926;28;20526;-59
2021/12/07 00:39:59;;;;;;;24.42;10.40;;;-0.10;99.90;;;;;;4953869;29;20067;-59
2021/12/07 00:42:26;;;;;;;23.40;9.77;;;0.00;99.90;;;;;;4954180;29;20058;-59
2021/12/07 00:44:52;;;;;;;25.55;9.65;;;0.00;99.90;;;;;;4954229;29;20057;-59
2021/12/07 00:47:18;;;;;;;24.70;9.35;;;0.00;99.90;;;;;;4954029;29;20090;-59
2021/12/07 00:49:44;;;;;;;20.15;8.73;;;0.10;99.90;;;;;;4953275;29;20039;-59
2021/12/07 00:52:10;;;;;;;21.27;8.13;;;0.10;99.90;;;;;;4951371;28;20036;-59
2021/12/07 00:54:37;;;;;;;20.15;7.80;;;0.20;99.90;;;;;;4954533;29;20656;-59
2021/12/07 00:57:03;;;;;;;20.45;7.65;;;0.20;99.90;;;;;;4955136;29;20118;-59
2021/12/07 00:59:30;;;;;;;19.23;7.18;;;0.20;99.90;;;;;;4953018;29;20034;-59
2021/12/07 01:01:56;;;;;;;18.55;6.97;;;0.30;99.90;;;;;;4937634;29;20480;-59
2021/12/07 01:04:23;;;;;;;18.65;7.65;;;0.30;99.90;;;;;;4951677;29;20023;-59
2021/12/07 01:07:23;;;;;;;18.92;7.45;;;0.40;99.90;;;;;;4954014;29;20042;-60
2021/12/07 01:24:39;;;;;;;22.67;8.57;;;0.40;99.90;;;;;;4951731;29;20055;-59
2021/12/07 01:26:07;;;;;;;21.00;7.40;;;0.50;99.90;;;;;;4953353;29;20050;-59
2021/12/07 01:28:41;;;;;;;19.73;7.72;;;0.60;99.90;;;;;;4951535;28;20043;-59
2021/12/07 01:31:16;;;;;;;19.13;7.32;;;0.70;99.90;;;;;;4952420;29;20035;-60
2021/12/07 01:34:05;;;;;;;24.73;8.88;;;0.80;99.90;;;;;;4952694;29;20098;-59
2021/12/07 01:47:47;;;;;;;25.45;9.52;;;0.40;99.90;;;;;;4945705;29;20030;-59
2021/12/07 01:53:08;;;;;;;28.33;9.18;;;0.50;99.90;;;;;;4953018;29;20396;-59
2021/12/07 02:01:06;;;;;;;24.23;9.73;;;0.60;99.90;;;;;;4951894;29;20093;-59
2021/12/07 02:03:33;;;;;;;27.95;9.85;;;0.60;99.90;;;;;;4951745;29;20370;-59
2021/12/07 02:05:58;;;;;;;27.48;10.30;;;0.60;99.90;;;;;;4952725;28;20039;-59
2021/12/07 02:08:24;;;;;;;25.92;9.05;;;0.60;99.90;;;;;;4952870;29;20396;-59
2021/12/07 02:10:54;;;;;;;29.02;10.13;;;0.60;99.90;;;;;;4952244;29;20440;-59
2021/12/07 02:15:56;;;;;;;23.90;9.20;;;0.60;99.90;;;;;;4948815;29;20451;-59
2021/12/07 02:18:22;;;;;;;30.40;9.90;;;0.60;99.90;;;;;;4952576;29;20042;-59
2021/12/07 02:20:49;;;;;;;27.50;9.52;;;0.60;99.90;;;;;;4952161;29;20042;-59
2021/12/07 02:23:15;;;;;;;27.45;9.55;;;0.70;99.90;;;;;;4953007;28;20031;-59
2021/12/07 02:25:41;;;;;;;29.27;9.43;;;0.70;99.90;;;;;;4952396;29;20048;-59
2021/12/07 02:28:12;;;;;;;29.00;9.95;;;0.70;99.90;;;;;;4953099;29;20122;-59
2021/12/07 02:30:38;;;;;;;19.25;6.82;;;0.80;99.90;;;;;;4952603;29;20055;-59
2021/12/07 02:33:04;;;;;;;17.88;7.03;;;0.80;99.90;;;;;;4951900;29;20039;-59
2021/12/07 02:35:30;;;;;;;18.50;6.72;;;1.00;99.90;;;;;;4952372;29;20077;-59
2021/12/07 02:37:57;;;;;;;21.65;7.43;;;1.10;99.90;;;;;;4952799;28;20031;-59
2021/12/07 02:40:23;;;;;;;24.50;8.25;;;1.10;99.90;;;;;;4951952;29;20499;-59
2021/12/07 02:42:50;;;;;;;23.48;7.43;;;1.00;99.90;;;;;;4948462;29;20097;-59
2021/12/07 02:45:17;;;;;;;20.08;7.28;;;1.10;99.90;;;;;;4936547;29;20039;-59
2021/12/07 02:47:42;;;;;;;22.85;8.73;;;1.10;99.90;;;;;;4937134;29;20658;-59
2021/12/07 02:50:10;;;;;;;27.75;9.43;;;1.10;99.90;;;;;;4951877;29;20035;-59
2021/12/07 02:52:36;;;;;;;23.83;8.55;;;1.10;99.90;;;;;;4950703;28;20528;-59
2021/12/07 02:55:03;;;;;;;21.35;7.95;;;1.10;99.90;;;;;;4951352;29;20023;-59
2021/12/07 02:57:30;;;;;;;26.48;9.48;;;1.00;99.90;;;;;;4951159;29;20051;-59
2021/12/07 03:00:05;;;;;;;25.42;8.90;;;1.10;99.90;;;;;;4952355;29;20035;-59
2021/12/07 03:02:36;;;;;;;22.77;8.30;;;1.10;99.90;;;;;;4949555;29;20478;-59
2021/12/07 03:05:17;;;;;;;22.60;8.32;;;1.10;99.90;;;;;;4952050;29;20046;-59
2021/12/07 03:26:36;;;;;;;18.17;6.43;;;1.10;99.90;;;;;;4949636;29;20740;-59
2021/12/07 03:29:02;;;;;;;17.48;6.63;;;1.10;99.90;;;;;;4951087;29;20032;-59
2021/12/07 03:31:29;;;;;;;18.98;6.35;;;1.10;99.90;;;;;;4950956;29;20118;-59
2021/12/07 03:33:59;;;;;;;19.25;6.68;;;1.20;99.90;;;;;;4950726;28;20468;-59
2021/12/07 03:36:25;;;;;;;16.70;6.15;;;1.10;99.90;;;;;;4951301;29;20043;-59
2021/12/07 03:38:51;;;;;;;18.63;6.55;;;1.20;99.90;;;;;;4944907;29;20062;-59
2021/12/07 03:41:18;;;;;;;19.23;7.35;;;1.10;99.90;;;;;;4949343;29;20032;-59
2021/12/07 03:43:44;;;;;;;18.05;6.30;;;1.20;99.90;;;;;;4950576;29;20117;-59
2021/12/07 03:46:10;;;;;;;16.92;6.00;;;1.10;99.90;;;;;;4950856;29;20037;-59
2021/12/07 03:48:36;;;;;;;18.98;6.53;;;1.10;99.90;;;;;;4950332;28;20045;-59
2021/12/07 03:51:03;;;;;;;17.55;6.55;;;1.20;99.90;;;;;;4950901;29;20110;-59
2021/12/07 03:53:29;;;;;;;15.80;6.15;;;1.20;99.90;;;;;;4933977;29;20451;-58
2021/12/07 03:55:57;;;;;;;14.18;5.63;;;1.20;99.90;;;;;;4952651;28;20031;-59
2021/12/07 03:58:22;;;;;;;14.18;5.32;;;1.20;99.90;;;;;;4949584;29;20031;-59
2021/12/07 04:00:48;;;;;;;15.50;5.93;;;1.20;99.90;;;;;;4950782;29;20042;-59
2021/12/07 04:03:16;;;;;;;15.00;5.03;;;1.20;99.90;;;;;;4950510;29;20024;-59
2021/12/07 04:05:48;;;;;;;14.65;5.88;;;1.20;99.90;;;;;;4948324;28;20035;-59
2021/12/07 04:08:20;;;;;;;14.50;5.78;;;1.20;99.90;;;;;;4950802;29;20114;-59
2021/12/07 04:10:46;;;;;;;14.27;5.90;;;1.20;99.90;;;;;;4948340;29;20431;-59
2021/12/07 04:13:12;;;;;;;13.07;5.32;;;1.20;99.90;;;;;;4949012;29;20090;-59
2021/12/07 04:15:38;;;;;;;16.00;6.28;;;1.20;99.90;;;;;;4947084;29;20058;-59
2021/12/07 04:18:04;;;;;;;13.75;5.25;;;1.20;99.90;;;;;;4950265;28;20468;-59
2021/12/07 04:20:30;;;;;;;8.68;3.92;;;1.20;99.90;;;;;;4949237;29;20070;-59
2021/12/07 04:22:56;;;;;;;9.93;4.30;;;1.20;99.90;;;;;;4950046;28;20098;-59
2021/12/07 04:25:23;;;;;;;11.27;4.60;;;1.20;99.90;;;;;;4949849;29;20138;-59
2021/12/07 04:27:50;;;;;;;9.02;3.45;;;1.20;99.90;;;;;;4941691;29;20190;-59
2021/12/07 04:30:30;;;;;;;9.38;4.03;;;1.20;99.90;;;;;;4950431;29;20483;-59
2021/12/07 04:32:57;;;;;;;10.85;3.90;;;1.20;99.90;;;;;;4949009;29;20449;-59
2021/12/07 04:35:22;;;;;;;13.60;4.68;;;1.20;99.90;;;;;;4949482;29;20503;-59
2021/12/07 04:37:48;;;;;;;11.95;4.63;;;1.20;99.90;;;;;;4950124;29;20047;-59
2021/12/07 04:40:18;;;;;;;11.88;4.45;;;1.20;99.90;;;;;;4950182;29;20039;-59
2021/12/07 04:42:45;;;;;;;12.07;4.15;;;1.30;99.90;;;;;;4949301;29;20031;-59
2021/12/07 04:45:21;;;;;;;10.55;3.97;;;1.30;99.90;;;;;;4933167;28;20428;-59
2021/12/07 04:58:31;;;;;;;15.05;5.13;;;1.30;99.90;;;;;;4945997;29;20085;-60
2021/12/07 05:00:57;;;;;;;11.80;4.57;;;1.30;99.90;;;;;;4946405;28;20031;-60
2021/12/07 05:03:26;;;;;;;11.68;4.45;;;1.30;99.90;;;;;;4950534;29;20090;-59
2021/12/07 05:05:53;;;;;;;12.50;5.00;;;1.30;99.90;;;;;;4946285;29;20057;-60
2021/12/07 05:08:43;;;;;;;9.82;4.32;;;1.30;99.90;;;;;;4948183;29;20039;-60
2021/12/07 05:17:12;;;;;;;10.98;4.72;;;1.40;99.90;;;;;;4941175;29;20054;-60
2021/12/07 05:38:44;;;;;;;9.10;3.97;;;1.50;99.90;;;;;;5089395;28;20081;-60
2021/12/07 05:41:10;;;;;;;8.85;3.78;;;1.50;99.90;;;;;;5099489;28;20039;-60
2021/12/07 05:43:36;;;;;;;11.65;4.30;;;1.50;99.90;;;;;;5087376;28;20101;-59
2021/12/07 05:46:03;;;;;;;9.40;3.90;;;1.50;99.90;;;;;;5085271;28;20099;-60
2021/12/07 05:48:29;;;;;;;13.65;4.53;;;1.50;99.90;;;;;;5087516;28;20032;-59
2021/12/07 05:50:55;;;;;;;10.55;4.53;;;1.50;99.90;;;;;;5086627;28;20025;-59
2021/12/07 05:53:21;;;;;;;11.73;4.03;;;1.50;99.90;;;;;;5086594;28;20035;-60
2021/12/07 05:55:47;;;;;;;11.25;4.30;;;1.50;99.90;;;;;;5085733;28;20032;-60
2021/12/07 05:58:13;;;;;;;11.98;4.30;;;1.50;99.90;;;;;;5088166;28;20028;-60
2021/12/07 06:00:42;;;;;;;11.18;4.00;;;1.50;99.90;;;;;;5087066;28;20016;-60
2021/12/07 06:03:09;;;;;;;10.15;4.47;;;1.60;99.90;;;;;;5085912;28;20036;-60
2021/12/07 06:05:37;;;;;;;18.52;4.20;;;1.50;99.90;;;;;;5084345;28;20125;-59
2021/12/07 06:08:04;;;;;;;11.45;4.60;;;1.50;99.90;;;;;;5084289;28;20123;-60
2021/12/07 06:10:30;;;;;;;10.85;4.15;;;1.50;99.90;;;;;;5085669;28;20028;-60
2021/12/07 06:12:56;;;;;;;8.88;3.60;;;1.50;99.90;;;;;;5085260;28;20028;-60
2021/12/07 06:15:23;;;;;;;13.13;5.00;;;1.50;99.90;;;;;;5085268;28;20395;-61
2021/12/07 06:17:51;;;;;;;8.65;3.78;;;1.50;99.90;;;;;;5085431;28;20039;-60
2021/12/07 06:20:18;;;;;;;11.05;4.38;;;1.50;99.90;;;;;;5085379;28;20070;-60
2021/12/07 06:22:44;;;;;;;12.13;4.22;;;1.50;99.90;;;;;;5082420;28;20020;-60
2021/12/07 06:25:10;;;;;;;11.20;4.50;;;1.50;99.90;;;;;;5090820;28;20495;-60
2021/12/07 06:27:38;;;;;;;9.88;4.15;;;1.50;99.90;;;;;;5085095;28;20047;-59
2021/12/07 06:30:05;;;;;;;8.18;3.38;;;1.50;99.90;;;;;;5091650;28;20030;-60
2021/12/07 06:32:31;;;;;;;10.77;3.63;;;1.50;99.90;;;;;;5085603;28;20107;-60
2021/12/07 06:34:57;;;;;;;10.02;4.18;;;1.50;99.90;;;;;;5084057;28;20104;-60
2021/12/07 06:37:22;;;;;;;11.20;4.15;;;1.50;99.90;;;;;;5079343;28;20024;-60
2021/12/07 06:39:48;;;;;;;10.05;4.07;;;1.50;99.90;;;;;;5071044;28;20028;-60
2021/12/07 06:42:14;;;;;;;10.95;4.47;;;1.50;99.90;;;;;;5071923;28;20021;-60
2021/12/07 06:44:40;;;;;;;11.90;3.80;;;1.50;99.90;;;;;;5070738;28;20106;-59
2021/12/07 06:47:06;;;;;;;8.05;3.53;;;1.50;99.90;;;;;;5070336;28;20123;-61
2021/12/07 06:49:31;;;;;;;9.05;3.97;;;1.60;99.90;;;;;;5071872;28;20036;-60
2021/12/07 06:51:58;;;;;;;12.13;3.50;;;1.60;99.90;;;;;;5070733;28;20036;-61
2021/12/07 06:54:24;;;;;;;12.70;3.85;;;1.60;99.90;;;;;;5083197;28;20038;-61
2021/12/07 06:56:52;;;;;;;9.13;3.75;;;1.60;99.90;;;;;;5088632;28;20044;-61
2021/12/07 06:59:18;;;;;;;10.23;3.95;;;1.60;99.90;;;;;;5081069;28;20037;-62
2021/12/07 07:01:44;;;;;;;11.07;3.75;;;1.60;99.90;;;;;;5069994;28;20464;-61
2021/12/07 07:04:12;;;;;;;16.13;3.72;;;1.60;99.90;;;;;;5072244;28;20037;-61
2021/12/07 07:06:39;;;;;;;9.13;3.13;;;1.60;99.90;;;;;;5083480;28;20029;-60
2021/12/07 07:09:05;;;;;;;10.85;3.33;;;1.60;99.90;;;;;;5071109;28;20036;-61
2021/12/07 07:11:32;;;;;;;9.48;3.70;;;1.60;99.90;;;;;;5071023;28;20374;-61
2021/12/07 07:13:58;;;;;;;11.45;3.47;;;1.60;99.90;;;;;;5070287;28;20071;-60
2021/12/07 07:16:23;;;;;;;9.07;3.22;;;1.60;99.90;;;;;;5073640;28;20064;-60
2021/12/07 07:18:49;;;;;;;9.80;3.35;;;1.60;99.90;;;;;;5086041;28;20028;-60
2021/12/07 07:21:15;;;;;;;10.27;3.40;;;1.70;99.90;;;;;;5081090;28;20481;-60
2021/12/07 07:23:41;;;;;;;10.05;3.47;;;1.70;99.90;;;;;;5071037;28;20073;-59
2021/12/07 07:26:07;;;;;;;6.88;3.42;;;1.70;99.90;;;;;;5070963;28;20057;-61
2021/12/07 07:28:34;;;;;;;10.43;4.18;;;1.70;99.90;;;;;;5070843;28;20067;-60
2021/12/07 07:31:02;;;;;;;10.10;3.80;;;1.70;99.90;;;;;;5076166;28;20158;-60
2021/12/07 07:33:27;;;;;;;9.82;3.78;;;1.70;99.90;;;;;;5075236;28;20111;-60
2021/12/07 07:35:54;;;;;;;6.20;3.17;;;1.70;99.90;;;;;;5071557;28;20119;-60
2021/12/07 07:38:20;;;;;;;9.23;3.15;;;1.60;99.90;;;;;;5071971;28;20036;-60
2021/12/07 07:40:46;;;;;;;9.45;2.95;;;1.70;99.90;;;;;;5061159;28;20028;-60
2021/12/07 07:43:16;;;;;;;8.00;3.67;;;1.60;99.90;;;;;;5074913;28;20028;-61
2021/12/07 07:45:44;;;;;;;8.35;3.20;;;1.60;99.90;;;;;;5069322;28;20037;-59
2021/12/07 07:48:10;;;;;;;9.02;3.17;;;1.70;99.90;;;;;;5064791;28;20097;-60
2021/12/07 07:50:36;;;;;;;9.68;3.55;;;1.70;99.90;;;;;;5068898;28;20108;-61
2021/12/07 07:53:03;;;;;;;13.60;3.85;;;1.70;99.90;;;;;;5069163;28;20484;-61
2021/12/07 07:55:29;;;;;;;8.40;3.17;;;1.70;99.90;;;;;;5070259;28;20422;-61
2021/12/07 07:57:55;;;;;;;10.45;3.30;;;1.70;99.90;;;;;;5072151;28;20032;-60
2021/12/07 08:00:21;;;;;;;8.82;2.80;;;1.80;99.90;;;;;;5076879;28;20029;-60
2021/12/07 08:02:47;;;;;;;6.75;2.47;;;1.80;99.90;;;;;;5070876;28;20498;-60
2021/12/07 08:05:14;;;;;;;12.40;3.45;;;1.80;99.90;;;;;;5070228;28;20028;-60
2021/12/07 08:07:40;;;;;;;8.02;3.40;;;1.80;99.90;;;;;;5050845;28;20392;-60
2021/12/07 08:10:08;;;;;;;11.40;3.40;;;1.80;99.90;;;;;;5065113;28;20024;-60
2021/12/07 08:12:34;;;;;;;9.77;3.58;;;1.80;99.90;;;;;;5069059;28;20103;-63
2021/12/07 08:15:00;;;;;;;10.30;3.65;;;1.80;99.90;;;;;;5069833;28;20044;-67
2021/12/07 08:17:27;;;;;;;14.88;3.38;;;1.80;99.90;;;;;;5068414;28;20029;-65
2021/12/07 08:19:53;;;;;;;11.68;3.30;;;1.80;99.90;;;;;;5074575;28;20024;-67
2021/12/07 08:22:18;;;;;;;7.35;3.40;;;1.70;99.90;;;;;;5070319;28;20028;-66
2021/12/07 08:24:45;;;;;;;13.65;5.05;;;1.70;99.90;;;;;;5069645;28;20476;-70
2021/12/07 08:27:11;;;;;;;14.60;3.95;;;1.80;99.90;;;;;;5069696;28;20057;-63
2021/12/07 08:29:37;;;;;;;11.00;4.18;;;1.70;99.90;;;;;;5075924;28;20468;-64
2021/12/07 08:32:03;;;;;;;12.13;4.30;;;1.70;99.90;;;;;;5071630;28;20032;-65
2021/12/07 08:34:29;;;;;;;9.07;4.28;;;1.80;99.90;;;;;;5080177;28;20103;-65
2021/12/07 08:36:55;;;;;;;10.55;4.50;;;1.90;99.90;;;;;;5069141;28;20111;-67
2021/12/07 08:39:20;;;;;;;9.73;4.43;;;1.90;99.90;;;;;;5069682;28;20029;-65
2021/12/07 08:41:46;;;;;;;15.05;4.88;;;1.90;99.90;;;;;;5067947;28;20450;-70
2021/12/07 08:44:12;;;;;;;11.98;4.03;;;1.90;99.90;;;;;;5069470;28;20528;-64
2021/12/07 08:46:39;;;;;;;8.40;4.25;;;2.00;99.90;;;;;;5078320;28;20396;-63
2021/12/07 08:49:05;;;;;;;12.57;4.22;;;2.00;99.90;;;;;;5086668;28;20024;-64
2021/12/07 08:51:30;;;;;;;14.32;3.88;;;2.10;99.90;;;;;;5069465;28;20044;-64
2021/12/07 08:54:04;;;;;;;10.48;3.85;;;2.10;99.90;;;;;;5068846;28;20033;-66
2021/12/07 09:01:59;;;;;;;13.05;3.30;;;2.40;99.90;;;;;;5074369;28;20078;-66
2021/12/07 09:04:24;;;;;;;11.07;4.10;;;2.40;99.90;;;;;;5082622;28;20037;-65
2021/12/07 09:06:50;;;;;;;11.13;3.95;;;2.30;99.90;;;;;;5067487;28;20055;-66
2021/12/07 09:09:17;;;;;;;9.27;3.42;;;2.40;99.90;;;;;;5067665;28;20147;-65
2021/12/07 09:11:44;;;;;;;12.43;3.85;;;2.40;99.90;;;;;;5068986;28;20074;-65
2021/12/07 09:14:12;;;;;;;17.70;3.92;;;2.30;99.90;;;;;;5069022;28;20039;-65
2021/12/07 09:16:38;;;;;;;9.80;3.50;;;2.30;99.90;;;;;;5069073;28;20078;-67
2021/12/07 09:19:04;;;;;;;11.88;4.10;;;2.20;99.90;;;;;;5067559;28;20032;-65
2021/12/07 09:21:31;;;;;;;12.18;4.07;;;2.20;99.90;;;;;;5069449;28;20032;-65
2021/12/07 09:23:57;;;;;;;8.38;3.22;;;2.20;99.90;;;;;;5068223;28;20024;-65
2021/12/07 09:26:25;;;;;;;12.68;3.60;;;2.30;99.90;;;;;;5068216;28;20053;-64
2021/12/07 09:28:51;;;;;;;8.52;3.85;;;2.30;99.90;;;;;;5070269;28;20046;-64
2021/12/07 09:31:17;;;;;;;8.13;3.50;;;2.30;99.90;;;;;;5071219;28;20025;-65
2021/12/07 09:33:43;;;;;;;13.18;4.30;;;2.30;99.90;;;;;;5069297;28;20036;-64
2021/12/07 09:36:12;;;;;;;12.52;3.72;;;2.30;99.90;;;;;;5066964;28;20020;-65
2021/12/07 09:38:38;;;;;;;10.70;3.97;;;2.30;99.90;;;;;;5068752;28;20029;-64
2021/12/07 09:41:06;;;;;;;12.75;3.80;;;2.30;99.90;;;;;;5078327;28;20074;-65
2021/12/07 09:43:32;;;;;;;10.57;4.05;;;2.30;99.90;;;;;;5068553;28;20036;-66
2021/12/07 09:45:58;;;;;;;10.02;4.13;;;2.30;99.90;;;;;;5070668;28;20040;-65
2021/12/07 09:48:25;;;;;;;11.80;3.47;;;2.30;99.90;;;;;;5068982;28;20100;-66
2021/12/07 09:50:53;;;;;;;8.90;4.15;;;2.30;99.90;;;;;;5068547;28;20032;-70
2021/12/07 09:53:20;;;;;;;9.25;4.00;;;2.30;99.90;;;;;;5069035;28;20116;-64
2021/12/07 09:55:47;;;;;;;12.07;4.03;;;2.30;99.90;;;;;;5068434;28;20071;-63
2021/12/07 09:58:14;;;;;;;9.18;3.30;;;2.30;99.90;;;;;;5068216;28;20067;-64
2021/12/07 10:00:41;;;;;;;10.68;3.78;;;2.20;99.90;;;;;;5086218;28;20138;-62
2021/12/07 10:03:07;;;;;;;8.95;3.67;;;2.20;99.90;;;;;;5080049;28;20017;-63
2021/12/07 10:05:35;;;;;;;9.82;3.78;;;2.20;99.90;;;;;;5069015;28;20037;-64
2021/12/07 10:08:03;;;;;;;10.77;4.15;;;2.20;99.90;;;;;;5067113;28;20392;-62
2021/12/07 10:10:33;;;;;;;10.23;3.92;;;2.20;99.90;;;;;;5068360;28;20061;-64
2021/12/07 10:12:59;;;;;;;9.45;4.18;;;2.20;99.90;;;;;;5070222;28;20036;-63
2021/12/07 10:15:25;;;;;;;7.53;3.67;;;2.20;99.90;;;;;;5072526;28;20040;-66
2021/12/07 10:18:03;;;;;;;7.13;3.63;;;2.20;99.90;;;;;;5064434;28;20039;-66
2021/12/07 10:20:41;;;;;;;9.90;4.00;;;2.20;99.90;;;;;;5063309;28;20559;-67
2021/12/07 10:23:16;;;;;;;13.95;4.18;;;2.20;99.90;;;;;;5066039;28;20037;-63
2021/12/07 10:25:47;;;;;;;11.40;4.32;;;2.20;99.90;;;;;;5068540;28;20541;-64
2021/12/07 10:28:30;;;;;;;10.02;3.78;;;2.20;99.90;;;;;;5068333;28;20021;-65
2021/12/07 10:31:02;;;;;;;11.95;4.20;;;2.30;99.90;;;;;;5065879;28;20032;-66
2021/12/07 10:33:35;;;;;;;10.52;3.80;;;2.30;99.90;;;;;;5066103;28;20484;-68
2021/12/07 10:36:13;;;;;;;12.25;4.25;;;2.40;99.90;;;;;;5070606;28;20095;-67
2021/12/07 10:38:41;;;;;;;12.73;4.13;;;2.40;99.90;;;;;;5068220;28;20021;-64
2021/12/07 10:41:13;;;;;;;11.52;4.30;;;2.50;99.90;;;;;;5070431;28;20546;-64
2021/12/07 10:43:58;;;;;;;8.43;3.90;;;2.50;99.90;;;;;;5071297;28;20063;-64
2021/12/07 10:46:31;;;;;;;11.25;3.53;;;2.60;99.90;;;;;;5064724;28;20041;-68
2021/12/07 10:49:13;;;;;;;10.15;3.80;;;2.60;99.90;;;;;;5068709;28;20495;-65
2021/12/07 10:51:41;;;;;;;9.10;3.55;;;2.70;99.90;;;;;;5070564;28;20662;-66
2021/12/07 10:54:09;;;;;;;10.35;3.65;;;2.70;99.90;;;;;;5068503;28;20039;-65
2021/12/07 10:56:37;;;;;;;8.60;3.20;;;2.70;99.90;;;;;;5068449;28;20707;-63
2021/12/07 10:59:06;;;;;;;9.32;3.72;;;2.80;99.90;;;;;;5074412;28;20024;-64
2021/12/07 11:01:41;;;;;;;17.95;4.50;;;2.80;99.90;;;;;;5072708;28;20032;-66
2021/12/07 11:04:28;;;;;;;12.38;3.85;;;2.80;99.90;;;;;;5068911;28;20611;-65
2021/12/07 11:07:25;;;;;;;8.32;3.42;;;2.80;99.90;;;;;;5070044;28;20048;-69
2021/12/07 11:12:38;;;;;;;11.10;3.78;;;2.90;99.90;;;;;;5071621;28;20044;-65
2021/12/07 11:15:12;;;;;;;7.68;2.92;;;2.90;99.90;;;;;;5065573;28;20044;-66
2021/12/07 11:17:38;;;;;;;7.95;3.58;;;3.00;99.90;;;;;;5080848;28;20032;-64
2021/12/07 11:20:05;;;;;;;11.25;3.17;;;3.10;99.90;;;;;;5085843;28;20037;-64
2021/12/07 11:22:34;;;;;;;7.70;3.40;;;3.00;99.90;;;;;;5071124;28;20059;-64
2021/12/07 11:25:03;;;;;;;10.00;3.72;;;3.20;99.90;;;;;;5073419;28;20037;-64
2021/12/07 11:30:29;;;;;;;7.30;2.95;;;3.90;99.90;;;;;;5083663;28;20070;-66
2021/12/07 11:32:59;;;;;;;5.55;2.80;;;4.00;99.90;;;;;;5079913;28;20028;-69
2021/12/07 11:35:29;;;;;;;8.45;3.10;;;4.10;99.90;;;;;;5079401;28;20718;-65
2021/12/07 11:37:59;;;;;;;8.05;3.00;;;4.00;99.90;;;;;;5084416;28;20361;-71
2021/12/07 11:40:38;;;;;;;12.80;3.13;;;4.30;99.90;;;;;;5065572;28;20032;-64
2021/12/07 11:43:18;;;;;;;9.15;2.85;;;4.40;99.90;;;;;;5065293;28;20032;-63
2021/12/07 11:45:45;;;;;;;9.65;2.78;;;4.60;99.90;;;;;;5068648;28;20508;-64
2021/12/07 11:48:12;;;;;;;7.75;3.05;;;4.60;99.90;;;;;;5068460;28;20077;-64
2021/12/07 11:50:45;;;;;;;11.45;2.58;;;4.40;99.90;;;;;;5068344;28;20034;-63
2021/12/07 11:53:16;;;;;;;11.80;3.28;;;4.20;99.90;;;;;;5070294;28;20032;-64
2021/12/07 11:55:47;;;;;;;12.60;2.92;;;3.90;99.90;;;;;;5066973;28;20029;-64
2021/12/07 11:58:14;;;;;;;7.65;2.97;;;3.70;99.90;;;;;;5068893;28;20480;-63
2021/12/07 12:00:52;;;;;;;9.85;2.50;;;3.50;99.90;;;;;;5072760;28;20791;-64
2021/12/07 12:03:22;;;;;;;8.57;2.53;;;3.30;99.90;;;;;;5067877;28;20527;-63
2021/12/07 12:05:49;;;;;;;7.70;2.50;;;3.30;99.90;;;;;;5068970;28;20118;-63
2021/12/07 12:08:19;;;;;;;12.05;2.78;;;3.20;99.90;;;;;;5067119;28;20047;-67
2021/12/07 12:11:08;;;;;;;11.88;3.28;;;3.20;99.90;;;;;;5065794;28;20107;-65
2021/12/07 12:13:56;;;;;;;6.35;2.30;;;3.20;99.90;;;;;;5069032;28;20404;-64
2021/12/07 12:16:40;;;;;;;12.02;2.85;;;3.30;99.90;;;;;;5069598;28;20051;-62
2021/12/07 12:19:36;;;;;;;13.88;2.85;;;4.10;99.90;;;;;;5068162;28;20027;-63
2021/12/07 12:22:11;;;;;;;8.57;2.90;;;4.50;99.90;;;;;;5069364;28;20096;-64
2021/12/07 12:24:58;;;;;;;8.63;2.70;;;4.40;99.90;;;;;;5050241;28;20036;-62
2021/12/07 12:27:30;;;;;;;6.13;2.28;;;4.40;99.90;;;;;;5049456;28;20053;-63
2021/12/07 12:29:57;;;;;;;6.63;2.33;;;4.30;99.90;;;;;;5071170;28;20031;-68
2021/12/07 12:32:33;;;;;;;13.80;3.00;;;4.20;99.90;;;;;;5068003;28;20044;-64
2021/12/07 12:34:59;;;;;;;8.73;2.58;;;4.10;99.90;;;;;;5068566;28;20028;-68
2021/12/07 12:37:29;;;;;;;11.98;2.50;;;3.90;99.90;;;;;;5067855;28;20427;-64
2021/12/07 12:40:05;;;;;;;9.30;2.45;;;3.90;99.90;;;;;;5069928;28;20123;-66
2021/12/07 12:42:39;;;;;;;11.10;2.53;;;3.80;99.90;;;;;;5068436;28;20043;-63
2021/12/07 12:45:19;;;;;;;8.02;3.55;;;3.70;99.90;;;;;;5069334;28;20102;-64
2021/12/07 12:47:45;;;;;;;;;;;3.60;99.90;;;;;;5069984;28;20036;-63
2021/12/07 12:50:33;;;;;;;7.13;2.67;;;3.60;99.90;;;;;;5068738;28;19904;-63
2021/12/07 12:53:06;;;;;;;10.00;2.78;;;3.40;99.90;;;;;;5048745;28;20036;-70
2021/12/07 12:55:40;;;;;;;7.68;2.65;;;3.40;99.90;;;;;;5065897;28;20024;-62
2021/12/07 12:58:17;;;;;;;10.15;2.83;;;3.50;99.90;;;;;;5071879;28;20024;-63
2021/12/07 13:01:04;;;;;;;12.68;2.75;;;3.50;99.90;;;;;;5085318;28;20059;-62
2021/12/07 13:03:42;;;;;;;8.43;2.70;;;3.50;99.90;;;;;;5079328;28;20028;-64
2021/12/07 13:06:09;;;;;;;6.72;2.67;;;3.60;99.90;;;;;;5068939;28;20119;-63
2021/12/07 13:08:56;;;;;;;5.97;2.20;;;3.60;99.90;;;;;;5069705;28;20025;-63
2021/12/07 13:12:03;;;;;;;7.68;2.70;;;3.60;99.90;;;;;;5067917;28;20102;-62
2021/12/07 13:14:31;;;;;;;8.63;2.47;;;3.60;99.90;;;;;;4990187;28;20040;-62
2021/12/07 13:17:05;;;;;;;9.10;2.67;;;3.50;99.90;;;;;;5007305;28;20037;-62
2021/12/07 13:19:52;;;;;;;11.27;4.05;;;3.60;99.90;;;;;;5052437;28;20048;-63
2021/12/07 13:22:19;;;;;;;11.45;3.10;;;3.60;99.90;;;;;;5067689;28;20028;-62
2021/12/07 13:24:46;;;;;;;9.50;2.72;;;3.70;99.90;;;;;;5067920;28;20112;-62
2021/12/07 13:27:14;;;;;;;9.68;2.38;;;3.70;99.90;;;;;;5068319;28;20056;-62
2021/12/07 13:29:50;;;;;;;9.10;3.22;;;3.70;99.90;;;;;;5075212;28;20028;-66
2021/12/07 13:32:16;;;;;;;8.30;2.83;;;3.70;99.90;;;;;;5068775;28;20025;-62
2021/12/07 13:34:42;;;;;;;9.65;3.35;;;3.70;99.90;;;;;;5049176;28;20031;-62
2021/12/07 13:37:13;;;;;;;6.90;2.60;;;3.80;99.90;;;;;;5062829;28;20044;-63
2021/12/07 13:39:52;;;;;;;11.45;3.08;;;3.70;99.90;;;;;;5069081;28;20396;-64
2021/12/07 13:42:18;;;;;;;11.23;2.75;;;3.70;99.90;;;;;;5066702;28;20064;-63
2021/12/07 13:44:46;;;;;;;8.25;3.08;;;3.70;99.90;;;;;;5069382;28;20067;-64
2021/12/07 13:47:18;;;;;;;9.45;3.25;;;3.70;99.90;;;;;;5068296;28;20033;-62
2021/12/07 13:49:51;;;;;;;8.73;2.95;;;3.70;99.90;;;;;;5072990;28;20039;-65
2021/12/07 13:52:22;;;;;;;10.57;3.10;;;3.60;99.90;;;;;;5072133;28;20032;-63
2021/12/07 13:54:52;;;;;;;13.05;2.80;;;3.60;99.90;;;;;;5072632;28;20024;-63
2021/12/07 13:57:22;;;;;;;7.73;2.93;;;3.70;99.90;;;;;;5070036;28;20110;-63
2021/12/07 14:00:12;;;;;;;13.25;3.20;;;3.70;99.90;;;;;;5081750;28;20043;-63
2021/12/07 14:02:40;;;;;;;10.55;3.67;;;3.70;99.90;;;;;;5071877;28;20029;-63
2021/12/07 14:05:19;;;;;;;15.95;4.85;;;3.60;99.90;;;;;;5068128;28;20366;-63
2021/12/07 14:07:47;;;;;;;12.35;3.42;;;3.70;99.90;;;;;;5067752;28;20051;-65
2021/12/07 14:10:18;;;;;;;12.40;3.03;;;3.70;99.90;;;;;;5071563;28;20074;-66
2021/12/07 14:12:45;;;;;;;12.13;3.38;;;3.60;99.90;;;;;;5068506;28;20038;-64
2021/12/07 14:15:21;;;;;;;8.70;3.10;;;3.70;99.90;;;;;;5068678;28;20044;-67
2021/12/07 14:17:51;;;;;;;9.15;3.42;;;3.70;99.90;;;;;;5069800;28;20031;-63
2021/12/07 14:20:33;;;;;;;10.98;2.88;;;3.70;99.90;;;;;;5069170;28;20469;-65
2021/12/07 14:23:00;;;;;;;10.25;3.78;;;3.70;99.90;;;;;;5070432;28;20043;-64
2021/12/07 14:25:26;;;;;;;7.95;3.20;;;3.70;99.90;;;;;;5069224;28;20044;-64
2021/12/07 14:27:52;;;;;;;8.82;2.72;;;3.80;99.90;;;;;;5071078;28;20025;-66
2021/12/07 14:30:18;;;;;;;9.93;2.53;;;3.90;99.90;;;;;;5070170;28;20671;-64
2021/12/07 14:32:45;;;;;;;7.80;2.72;;;3.90;99.90;;;;;;5071405;28;20059;-65
2021/12/07 14:35:12;;;;;;;7.93;2.33;;;3.90;99.90;;;;;;5068634;28;20400;-64
2021/12/07 14:37:38;;;;;;;8.35;2.55;;;3.90;99.90;;;;;;5067195;28;20037;-67
2021/12/07 14:40:06;;;;;;;10.27;2.95;;;3.90;99.90;;;;;;5075316;28;20382;-69
2021/12/07 14:42:32;;;;;;;11.48;2.95;;;3.90;99.90;;;;;;5067697;28;20033;-63
2021/12/07 14:44:59;;;;;;;6.47;2.55;;;3.80;99.90;;;;;;5074114;28;20032;-64